LKY weather

Lake Manyara Airport
Lake Manyara National Park, Manyara Region, Tanzania

Public forecast

Using degrees Celsius for public forecast. Weather courtesy of forecast.io.

Closest aviation weather report (METAR) to Lake Manyara Airport

Closest report is Arusha Airport, 48.9 nm (90.5 km) E. Retrieved 2019/10/20 15:00 UTC (57 minutes ago):

HTAR 201500Z 11014KT 9999 FEW038 24/17 Q1015 NOSIG

Closest aviation forecast (TAF) to Lake Manyara Airport

Closest forecast is Arusha Airport, 48.9 nm (90.5 km) E. Retrieved 2019/10/20 12:00 UTC (4 hours ago):

TAF HTAR 201100Z 2012/2112 13010KT 9999 BKN030 BECMG 2015/2016 11005KT FEW036 BECMG 2018/2023 11005KT RA SCT006 BKN020 BKN080